createdAt,value
2023-01-11T00:00:18.072Z,11.00
2023-01-11T00:02:52.046Z,11.75
2023-01-11T00:05:20.027Z,11.00
2023-01-11T00:08:02.416Z,10.00
2023-01-11T00:10:36.731Z,12.00
2023-01-11T00:15:47.751Z,8.25
2023-01-11T00:21:06.463Z,10.00
2023-01-11T00:23:57.753Z,10.25
2023-01-11T00:27:05.999Z,9.50
2023-01-11T00:29:33.875Z,8.50
2023-01-11T00:32:20.425Z,8.25
2023-01-11T00:35:09.385Z,8.00
2023-01-11T00:37:43.538Z,8.25
2023-01-11T00:40:14.982Z,7.25
2023-01-11T00:43:24.053Z,8.25
2023-01-11T00:49:38.884Z,7.75
2023-01-11T00:52:09.470Z,7.00
2023-01-11T00:54:41.257Z,6.75
2023-01-11T00:58:41.401Z,7.00
2023-01-11T01:01:09.904Z,7.00
2023-01-11T01:03:40.106Z,6.50
2023-01-11T01:06:16.609Z,6.25
2023-01-11T01:09:10.516Z,6.50
2023-01-11T01:11:55.934Z,5.25
2023-01-11T01:14:44.586Z,6.00
2023-01-11T01:17:41.439Z,6.00
2023-01-11T01:20:24.690Z,6.00
2023-01-11T01:22:55.369Z,5.00
2023-01-11T01:25:42.924Z,6.50
2023-01-11T01:28:22.056Z,5.00
2023-01-11T01:30:54.412Z,6.00
2023-01-11T01:33:22.403Z,5.75
2023-01-11T01:35:50.301Z,6.00
2023-01-11T01:38:37.715Z,5.00
2023-01-11T01:41:09.238Z,5.00
2023-01-11T01:44:12.248Z,5.25
2023-01-11T01:46:40.914Z,5.00
2023-01-11T01:49:20.310Z,4.25
2023-01-11T01:52:03.240Z,5.00
2023-01-11T01:54:49.883Z,4.00
2023-01-11T01:57:34.549Z,4.75
2023-01-11T02:00:23.683Z,5.00
2023-01-11T02:02:54.425Z,3.00
2023-01-11T02:05:42.095Z,4.00
2023-01-11T02:08:12.941Z,4.00
2023-01-11T02:11:19.973Z,3.75
2023-01-11T02:14:13.877Z,5.00
2023-01-11T02:16:44.201Z,4.00
2023-01-11T02:19:23.709Z,4.00
2023-01-11T02:22:36.924Z,4.00
2023-01-11T02:25:41.577Z,4.75
2023-01-11T02:28:50.973Z,4.00
2023-01-11T02:31:25.628Z,2.75
2023-01-11T02:34:29.206Z,4.00
2023-01-11T02:37:48.245Z,4.00
2023-01-11T02:40:26.910Z,4.00
2023-01-11T02:43:14.175Z,4.00
2023-01-11T02:46:15.947Z,3.00
2023-01-11T02:49:02.623Z,3.00
2023-01-11T02:51:44.242Z,3.00
2023-01-11T02:57:16.352Z,3.00
2023-01-11T03:03:08.723Z,3.00
2023-01-11T03:06:02.446Z,2.75
2023-01-11T03:09:09.763Z,3.25
2023-01-11T03:12:49.933Z,2.50
2023-01-11T03:16:14.352Z,3.00
2023-01-11T03:18:52.146Z,2.00
2023-01-11T03:22:02.760Z,3.00
2023-01-11T03:24:50.459Z,3.00
2023-01-11T03:27:21.616Z,2.50
2023-01-11T03:30:15.598Z,3.00
2023-01-11T03:33:07.207Z,2.25
2023-01-11T03:35:54.787Z,3.00
2023-01-11T03:38:31.988Z,2.00
2023-01-11T03:41:08.020Z,2.00
2023-01-11T03:44:00.325Z,2.00
2023-01-11T03:47:01.480Z,2.00
2023-01-11T03:49:58.584Z,2.00
2023-01-11T03:52:35.359Z,2.50
2023-01-11T03:55:06.310Z,3.00
2023-01-11T03:57:51.767Z,2.00
2023-01-11T04:00:27.835Z,2.00
2023-01-11T04:02:55.792Z,3.00
2023-01-11T04:05:45.063Z,1.75
2023-01-11T04:08:12.950Z,2.00
2023-01-11T04:13:37.995Z,2.00
2023-01-11T04:16:06.302Z,2.00
2023-01-11T04:18:48.471Z,2.00
2023-01-11T04:22:01.813Z,1.75
2023-01-11T04:24:30.686Z,1.50
2023-01-11T04:30:00.171Z,2.00
2023-01-11T04:35:59.065Z,2.00
2023-01-11T04:38:42.284Z,2.00
2023-01-11T04:41:50.165Z,1.75
2023-01-11T04:44:20.071Z,1.00
2023-01-11T04:46:47.943Z,2.00
2023-01-11T04:49:45.764Z,1.00
2023-01-11T04:52:20.395Z,1.00
2023-01-11T04:54:54.667Z,1.00
2023-01-11T04:57:34.093Z,2.00
2023-01-11T05:03:55.954Z,2.00
2023-01-11T05:06:33.592Z,1.00
2023-01-11T05:09:41.795Z,1.50
2023-01-11T05:12:27.724Z,1.75
2023-01-11T05:14:59.201Z,1.75
2023-01-11T05:17:28.885Z,1.00
2023-01-11T05:20:06.860Z,1.00
2023-01-11T05:22:52.841Z,1.00
2023-01-11T05:25:32.974Z,1.00
2023-01-11T05:28:22.263Z,1.00
2023-01-11T05:31:02.676Z,1.00
2023-01-11T05:33:42.512Z,1.00
2023-01-11T05:39:12.807Z,1.00
2023-01-11T05:42:01.760Z,1.00
2023-01-11T05:45:26.742Z,1.00
2023-01-11T05:48:00.491Z,1.50
2023-01-11T05:53:42.768Z,2.00
2023-01-11T05:56:23.112Z,2.75
2023-01-11T05:59:04.182Z,4.00
2023-01-11T06:01:33.190Z,5.50
2023-01-11T06:04:04.114Z,6.25
2023-01-11T06:06:47.937Z,6.00
2023-01-11T06:09:32.761Z,6.00
2023-01-11T06:12:03.820Z,7.00
2023-01-11T06:14:41.550Z,8.00
2023-01-11T06:20:54.806Z,7.00
2023-01-11T06:23:26.088Z,7.75
2023-01-11T06:26:04.342Z,9.00
2023-01-11T06:28:38.401Z,8.25
2023-01-11T06:31:06.974Z,8.00
2023-01-11T06:33:35.264Z,8.00
2023-01-11T06:36:09.932Z,10.00
2023-01-11T06:38:40.932Z,11.00
2023-01-11T06:41:10.794Z,9.50
2023-01-11T06:43:55.233Z,11.25
2023-01-11T06:46:27.618Z,10.00
2023-01-11T06:49:04.766Z,9.50
2023-01-11T06:51:47.968Z,10.50
2023-01-11T06:57:15.319Z,8.00
2023-01-11T07:00:01.958Z,8.25
2023-01-11T07:02:38.963Z,8.75
2023-01-11T07:05:08.168Z,9.50
2023-01-11T07:10:38.702Z,9.00
2023-01-11T07:13:08.245Z,9.25
2023-01-11T07:15:39.540Z,10.00
2023-01-11T07:18:37.456Z,9.00
2023-01-11T07:21:07.828Z,8.50
2023-01-11T07:23:35.853Z,9.75
2023-01-11T07:26:04.032Z,8.00
2023-01-11T07:28:36.909Z,8.75
2023-01-11T07:31:05.416Z,7.75
2023-01-11T07:33:33.442Z,6.75
2023-01-11T07:36:05.359Z,9.00
2023-01-11T07:38:33.628Z,7.25
2023-01-11T07:41:22.474Z,10.25
2023-01-11T07:43:50.768Z,7.00
2023-01-11T07:46:18.882Z,7.00
2023-01-11T07:48:49.871Z,9.00
2023-01-11T07:51:21.192Z,8.00
2023-01-11T07:53:49.072Z,8.00
2023-01-11T07:56:17.049Z,7.00
2023-01-11T07:59:07.655Z,5.75
2023-01-11T08:01:35.814Z,8.25
2023-01-11T08:04:03.777Z,6.50
2023-01-11T08:06:31.879Z,7.00
2023-01-11T08:09:00.265Z,6.75
2023-01-11T08:11:46.275Z,7.00
2023-01-11T08:14:33.040Z,6.25
2023-01-11T08:17:00.981Z,6.75
2023-01-11T08:19:28.893Z,5.50
2023-01-11T08:21:57.139Z,6.75
2023-01-11T08:24:27.896Z,8.00
2023-01-11T08:26:55.819Z,5.00
2023-01-11T08:29:25.883Z,5.50
2023-01-11T08:31:54.031Z,6.00
2023-01-11T08:34:22.968Z,5.50
2023-01-11T08:36:53.828Z,4.75
2023-01-11T08:39:24.584Z,5.25
2023-01-11T08:41:54.220Z,6.00
2023-01-11T08:44:34.065Z,5.75
2023-01-11T08:47:04.973Z,4.75
2023-01-11T08:49:33.699Z,5.75
2023-01-11T08:52:01.623Z,5.75
2023-01-11T08:54:29.636Z,4.75
2023-01-11T08:57:03.657Z,5.00
2023-01-11T08:59:38.298Z,4.75
2023-01-11T09:02:07.679Z,5.00
2023-01-11T09:04:44.832Z,2.75
2023-01-11T09:07:16.120Z,5.00
2023-01-11T09:09:44.227Z,5.50
2023-01-11T09:12:12.135Z,4.75
2023-01-11T09:14:56.739Z,5.00
2023-01-11T09:17:24.966Z,4.00
2023-01-11T09:19:53.487Z,5.00
2023-01-11T09:22:24.544Z,3.75
2023-01-11T09:24:52.895Z,3.50
2023-01-11T09:27:20.803Z,4.25
2023-01-11T09:29:55.894Z,3.75
2023-01-11T09:32:25.155Z,4.00
2023-01-11T09:35:25.258Z,3.00
2023-01-11T09:37:55.184Z,3.00
2023-01-11T09:40:26.392Z,3.50
2023-01-11T09:43:01.371Z,4.25
2023-01-11T09:48:51.734Z,4.00
2023-01-11T09:51:20.991Z,4.00
2023-01-11T09:53:52.437Z,3.00
2023-01-11T09:56:28.694Z,3.00
2023-01-11T09:59:01.431Z,3.00
2023-01-11T10:04:58.724Z,4.00
2023-01-11T10:18:23.665Z,3.25
2023-01-11T10:18:39.948Z,3.00
2023-01-11T10:20:28.960Z,3.00
2023-01-11T10:23:24.931Z,4.00
2023-01-11T10:25:58.385Z,3.00
2023-01-11T10:28:34.482Z,3.00
2023-01-11T10:31:26.517Z,3.00
2023-01-11T10:34:14.879Z,3.75
2023-01-11T10:37:17.097Z,3.00
2023-01-11T10:40:06.482Z,3.00
2023-01-11T10:42:39.173Z,3.00
2023-01-11T10:45:11.255Z,3.25
2023-01-11T10:47:45.425Z,2.00
2023-01-11T10:50:23.929Z,3.00
2023-01-11T10:53:05.868Z,4.00
2023-01-11T10:55:52.061Z,2.00
2023-01-11T10:58:28.475Z,3.00
2023-01-11T11:01:01.346Z,2.00
2023-01-11T11:03:50.523Z,3.00
2023-01-11T11:06:22.246Z,3.00
2023-01-11T11:08:57.194Z,2.25
2023-01-11T11:11:32.118Z,2.25
2023-01-11T11:14:05.364Z,2.50
2023-01-11T11:16:42.287Z,3.00
2023-01-11T11:19:10.643Z,2.00
2023-01-11T11:21:41.851Z,2.00
2023-01-11T11:24:27.804Z,3.50
2023-01-11T11:26:59.300Z,3.00
2023-01-11T11:29:31.011Z,3.25
2023-01-11T11:32:03.425Z,3.25
2023-01-11T11:34:31.430Z,3.00
2023-01-11T11:37:07.374Z,2.50
2023-01-11T11:43:20.885Z,3.00
2023-01-11T11:45:53.093Z,4.50
2023-01-11T11:48:46.212Z,3.25
2023-01-11T11:51:29.429Z,4.00
2023-01-11T11:53:58.127Z,3.25
2023-01-11T11:56:29.453Z,2.00
2023-01-11T11:58:58.004Z,3.00
2023-01-11T12:01:29.679Z,3.00
2023-01-11T12:03:59.695Z,2.00
2023-01-11T12:06:51.073Z,3.00
2023-01-11T12:09:23.640Z,3.00
2023-01-11T12:11:55.989Z,3.00
2023-01-11T12:14:25.193Z,3.00
2023-01-11T12:16:53.137Z,3.00
2023-01-11T12:19:29.340Z,3.50
2023-01-11T12:22:16.404Z,3.00
2023-01-11T12:24:44.920Z,2.00
2023-01-11T12:27:26.967Z,3.25
2023-01-11T12:30:29.150Z,3.00
2023-01-11T12:33:27.569Z,3.00
2023-01-11T12:35:57.572Z,3.00
2023-01-11T12:39:16.119Z,3.50
2023-01-11T12:42:05.415Z,2.50
2023-01-11T12:44:44.660Z,3.25
2023-01-11T12:47:45.915Z,3.00
2023-01-11T12:53:14.191Z,2.25
2023-01-11T12:55:51.252Z,2.00
2023-01-11T12:58:24.042Z,2.25
2023-01-11T13:01:38.847Z,3.00
2023-01-11T13:04:34.245Z,1.50
2023-01-11T13:07:22.999Z,3.00
2023-01-11T13:10:03.918Z,3.00
2023-01-11T13:12:33.694Z,3.50
2023-01-11T13:15:07.477Z,3.00
2023-01-11T13:17:40.620Z,3.00
2023-01-11T13:20:21.629Z,3.00
2023-01-11T13:22:52.222Z,2.75
2023-01-11T13:25:25.316Z,3.25
2023-01-11T13:27:53.960Z,3.00
2023-01-11T13:30:27.787Z,2.25
2023-01-11T13:32:57.432Z,3.00
2023-01-11T13:35:35.213Z,3.00
2023-01-11T13:38:07.349Z,3.00
2023-01-11T13:40:37.261Z,2.00
2023-01-11T13:43:21.650Z,3.00
2023-01-11T13:45:54.050Z,3.50
2023-01-11T13:48:25.166Z,3.00
2023-01-11T13:50:55.542Z,3.00
2023-01-11T13:53:27.100Z,2.75
2023-01-11T13:56:02.944Z,3.00
2023-01-11T13:58:42.194Z,2.00
2023-01-11T14:01:15.542Z,2.25
2023-01-11T14:03:50.248Z,3.50
2023-01-11T14:06:35.100Z,2.75
2023-01-11T14:09:27.163Z,2.50
2023-01-11T14:12:00.359Z,2.25
2023-01-11T14:15:17.685Z,2.00
2023-01-11T14:18:26.592Z,2.50
2023-01-11T14:21:00.351Z,2.00
2023-01-11T14:23:33.983Z,2.00
2023-01-11T14:26:12.677Z,3.00
2023-01-11T14:28:47.787Z,2.50
2023-01-11T14:31:45.445Z,2.75
2023-01-11T14:34:25.889Z,3.00
2023-01-11T14:37:02.518Z,3.00
2023-01-11T14:39:55.537Z,2.25
2023-01-11T14:42:47.133Z,2.00
2023-01-11T14:45:34.938Z,3.00
2023-01-11T14:48:26.099Z,2.25
2023-01-11T14:51:07.916Z,3.00
2023-01-11T14:53:39.608Z,3.25
2023-01-11T14:56:31.073Z,3.00
2023-01-11T14:59:06.190Z,2.00
2023-01-11T15:05:09.375Z,3.00
2023-01-11T15:07:44.952Z,3.75
2023-01-11T15:10:50.169Z,2.25
2023-01-11T15:13:37.404Z,2.75
2023-01-11T15:16:49.187Z,3.00
2023-01-11T15:19:28.690Z,3.25
2023-01-11T15:21:56.744Z,4.00
2023-01-11T15:24:27.619Z,3.50
2023-01-11T15:26:55.949Z,3.00
2023-01-11T15:29:40.295Z,2.25
2023-01-11T15:32:18.009Z,3.00
2023-01-11T15:34:47.579Z,3.25
2023-01-11T15:37:41.907Z,4.00
2023-01-11T15:40:23.568Z,5.00
2023-01-11T15:43:15.647Z,2.00
2023-01-11T15:46:37.889Z,2.75
2023-01-11T15:49:37.329Z,4.50
2023-01-11T15:52:31.239Z,4.00
2023-01-11T15:55:54.790Z,6.50
2023-01-11T15:59:03.073Z,6.25
2023-01-11T16:01:32.198Z,7.75
2023-01-11T16:04:05.702Z,9.50
2023-01-11T16:06:46.461Z,7.75
2023-01-11T16:10:07.522Z,7.75
2023-01-11T16:13:19.799Z,10.75
2023-01-11T16:16:03.667Z,11.00
2023-01-11T16:19:22.804Z,11.00
2023-01-11T16:21:53.363Z,11.25
2023-01-11T16:24:21.990Z,13.00
2023-01-11T16:26:52.021Z,12.50
2023-01-11T16:29:51.998Z,14.50
2023-01-11T16:32:20.640Z,12.50
2023-01-11T16:35:17.398Z,14.00
2023-01-11T16:37:49.025Z,13.00
2023-01-11T16:40:38.222Z,15.00
2023-01-11T16:43:30.376Z,15.00
2023-01-11T16:45:58.562Z,11.50
2023-01-11T16:48:43.641Z,14.50
2023-01-11T16:51:15.120Z,14.00
2023-01-11T16:53:48.289Z,14.00
2023-01-11T16:56:17.136Z,13.75
2023-01-11T16:59:24.780Z,14.50
2023-01-11T17:01:54.186Z,14.25
2023-01-11T17:04:42.074Z,13.75
2023-01-11T17:07:30.589Z,11.50
2023-01-11T17:17:38.806Z,10.50
2023-01-11T17:20:14.930Z,12.00
2023-01-11T17:23:07.716Z,12.00
2023-01-11T17:25:45.331Z,11.25
2023-01-11T17:28:16.076Z,12.00
2023-01-11T17:30:45.144Z,10.00
2023-01-11T17:33:26.129Z,11.25
2023-01-11T17:35:56.713Z,11.50
2023-01-11T17:38:25.756Z,11.00
2023-01-11T17:40:56.189Z,10.00
2023-01-11T17:43:42.805Z,11.75
2023-01-11T17:49:29.059Z,12.25
2023-01-11T17:52:27.330Z,10.00
2023-01-11T17:55:15.651Z,10.00
2023-01-11T17:57:43.713Z,10.50
2023-01-11T18:00:25.742Z,9.75
2023-01-11T18:03:19.917Z,10.75
2023-01-11T18:05:47.926Z,11.75
2023-01-11T18:08:23.596Z,11.00
2023-01-11T18:10:55.705Z,13.25
2023-01-11T18:14:14.184Z,14.25
2023-01-11T18:16:21.544Z,13.00
2023-01-11T18:18:50.783Z,11.00
2023-01-11T18:21:40.778Z,13.75
2023-01-11T18:24:45.723Z,16.25
2023-01-11T18:27:33.918Z,14.00
2023-01-11T18:30:08.641Z,12.75
2023-01-11T18:32:42.433Z,14.75
2023-01-11T18:38:03.235Z,13.25
2023-01-11T18:40:47.365Z,14.25
2023-01-11T18:43:33.520Z,11.75
2023-01-11T18:46:01.734Z,14.00
2023-01-11T18:48:30.167Z,13.00
2023-01-11T18:51:02.163Z,13.00
2023-01-11T18:53:40.748Z,13.25
2023-01-11T18:56:22.960Z,11.25
2023-01-11T18:58:50.922Z,14.00
2023-01-11T19:01:18.956Z,11.75
2023-01-11T19:03:47.702Z,12.75
2023-01-11T19:06:22.066Z,12.75
2023-01-11T19:08:59.911Z,12.00
2023-01-11T19:11:47.655Z,10.50
2023-01-11T19:14:16.085Z,11.00
2023-01-11T19:16:47.386Z,9.00
2023-01-11T19:19:44.710Z,10.00
2023-01-11T19:22:30.730Z,9.50
2023-01-11T19:25:00.409Z,11.00
2023-01-11T19:27:46.298Z,9.75
2023-01-11T19:30:29.151Z,10.25
2023-01-11T19:33:09.703Z,10.00
2023-01-11T19:35:44.489Z,9.00
2023-01-11T19:41:09.832Z,11.00
2023-01-11T19:46:47.016Z,10.00
2023-01-11T19:49:28.650Z,8.50
2023-01-11T19:52:16.058Z,9.00
2023-01-11T19:54:49.803Z,9.50
2023-01-11T19:57:30.717Z,11.00
2023-01-11T19:59:58.621Z,11.00
2023-01-11T20:02:29.672Z,12.75
2023-01-11T20:05:07.383Z,12.00
2023-01-11T20:07:38.279Z,14.50
2023-01-11T20:10:06.865Z,13.50
2023-01-11T20:15:30.468Z,13.00
2023-01-11T20:18:00.333Z,14.50
2023-01-11T20:20:28.632Z,14.00
2023-01-11T20:23:14.109Z,16.00
2023-01-11T20:25:44.410Z,16.75
2023-01-11T20:28:37.397Z,14.50
2023-01-11T20:31:09.861Z,17.00
2023-01-11T20:33:40.549Z,16.00
2023-01-11T20:36:18.460Z,17.00
2023-01-11T20:39:05.591Z,17.00
2023-01-11T20:41:51.706Z,16.75
2023-01-11T20:45:09.792Z,14.75
2023-01-11T20:47:46.634Z,15.50
2023-01-11T20:50:23.466Z,14.00
2023-01-11T20:52:51.692Z,15.00
2023-01-11T20:55:29.121Z,15.25
2023-01-11T20:57:58.411Z,14.25
2023-01-11T21:00:40.125Z,16.50
2023-01-11T21:03:09.485Z,14.00
2023-01-11T21:06:10.648Z,15.75
2023-01-11T21:08:57.455Z,13.00
2023-01-11T21:11:36.166Z,13.25
2023-01-11T21:14:05.163Z,13.25
2023-01-11T21:16:33.273Z,14.00
2023-01-11T21:19:59.470Z,13.00
2023-01-11T21:22:36.625Z,14.00
2023-01-11T21:25:26.655Z,15.75
2023-01-11T21:27:59.495Z,16.25
2023-01-11T21:30:49.170Z,17.00
2023-01-11T21:33:20.059Z,14.25
2023-01-11T21:39:09.409Z,16.50
2023-01-11T21:42:16.685Z,18.75
2023-01-11T21:44:44.596Z,19.75
2023-01-11T21:47:27.403Z,18.50
2023-01-11T21:53:05.993Z,17.50
2023-01-11T21:55:49.612Z,18.50
2023-01-11T21:58:32.879Z,15.75
2023-01-11T22:01:10.958Z,14.50
2023-01-11T22:03:42.253Z,18.75
2023-01-11T22:06:22.539Z,17.25
2023-01-11T22:09:15.842Z,17.50
2023-01-11T22:11:43.680Z,17.00
2023-01-11T22:14:12.387Z,16.00
2023-01-11T22:16:46.433Z,16.75
2023-01-11T22:19:18.136Z,16.00
2023-01-11T22:21:46.486Z,14.00
2023-01-11T22:24:16.986Z,14.00
2023-01-11T22:26:57.379Z,15.25
2023-01-11T22:29:54.993Z,15.00
2023-01-11T22:32:43.577Z,13.25
2023-01-11T22:35:17.326Z,13.00
2023-01-11T22:37:55.972Z,15.00
2023-01-11T22:40:56.666Z,13.50
2023-01-11T22:46:14.141Z,11.50
2023-01-11T22:48:44.625Z,11.50
2023-01-11T22:51:22.200Z,12.00
2023-01-11T22:59:29.929Z,11.00
2023-01-11T23:01:58.109Z,10.25
2023-01-11T23:04:33.236Z,9.00
2023-01-11T23:07:01.123Z,11.00
2023-01-11T23:09:35.112Z,10.75
2023-01-11T23:12:29.171Z,11.50
2023-01-11T23:14:57.093Z,10.00
2023-01-11T23:20:31.239Z,9.50
2023-01-11T23:23:50.315Z,10.00
2023-01-11T23:26:21.572Z,8.50
2023-01-11T23:29:09.555Z,10.25
2023-01-11T23:31:38.947Z,8.00
2023-01-11T23:34:31.440Z,8.75
2023-01-11T23:39:53.516Z,7.25
2023-01-11T23:42:38.871Z,9.00
2023-01-11T23:48:33.804Z,8.00
2023-01-11T23:51:05.127Z,8.25
2023-01-11T23:53:33.057Z,7.25
2023-01-11T23:56:00.992Z,7.00
2023-01-11T23:58:43.940Z,9.25
